Sacramento, California
Traffic Map
Current Weather Conditions
Sacramento, California
Clear
Clear
21°
Feels Like: 21°
Wind Chill: 21° Ceiling: Unl
Heat Index: 21° Visibility: 10mi
Dew Point: Wind: 3mph
Humidity: 35% Direction: 270° (W)
Pressure: 30.3in Gusts: 0mph
Raw Report DataKSAC 052153Z 27003KT 10SM CLR 21/04 A3030 RMK AO2 SLP259 T02060044
Traffic Incident Summary
Active as of:
Severity:
Category:
InformationThere was an issue retrieving the traffic information for this location. Please try a different location or try again shortly.
Advertisements
Track Severe Weather on mobile